Thursday, November 15, 2018, 9:55 AM EST
Back to Local

KDXR, Danbury Municipal Airport

Location: Danbury, CT, United States Lat: 41.367
Local Time: 9:55 AM EST (14:55 GMT) Lon: -73.483
Time Zone: US/Eastern Elev: 459 ft

Show me the last for .
Show Coded

Time T Td Feel RH Dir Speed Gust Alt SLP Vis Weather Sky Remarks
2018-11-15 08:53 26 10 18 50 60° 7 - 30.55 30.56 10 CLR None
2018-11-15 07:53 25 11 19 54 80° 5 - 30.59 30.60 10 CLR None
2018-11-15 06:53 25 12 19 57 60° 5 - 30.57 30.58 10 CLR 6-hr Min Temp (7am): 25.0°F
6-hr Max Temp (7am): 26.1°F
2018-11-15 05:53 25 10 18 52 70° 6 - 30.55 30.57 10 CLR None
2018-11-15 04:53 26 10 21 50 20° 5 - 30.57 30.58 10 CLR None
2018-11-15 03:53 26 11 21 52 20° 5 - 30.59 30.60 10 CLR None
2018-11-15 02:53 25 12 21 57 40° 3 - 30.58 30.59 10 CLR None
2018-11-15 01:53 26 11 22 52 360° 3 - 30.59 30.60 10 CLR None
2018-11-15 00:53 26 11 19 52 10° 6 - 30.59 30.61 10 CLR 6-hr Min Temp (1am): 26.1°F
6-hr Max Temp (1am): 28.9°F
2018-11-14 23:53 27 11 20 50 360° 6 - 30.58 30.59 10 CLR 24-hr Min Temp (12am): 27.0°F
24-hr Max Temp (12am): 39.0°F
2018-11-14 22:53 27 11 17 50 20° 10 - 30.58 30.59 10 CLR None
2018-11-14 21:53 28 10 19 46 360° 10 - 30.59 30.60 10 CLR None
2018-11-14 20:53 28 11 19 48 340° 9 - 30.55 30.56 10 CLR None
2018-11-14 19:53 28 11 19 48 350° 9 - 30.53 30.55 10 CLR None
2018-11-14 18:53 29 11 20 46 350° 10 - 30.53 30.54 10 CLR 6-hr Min Temp (7pm): 28.9°F
6-hr Max Temp (7pm): 35.1°F
2018-11-14 17:53 30 11 20 44 360° 13 - 30.50 30.52 10 CLR None
2018-11-14 16:53 31 12 24 44 340° 7 - 30.47 30.49 10 CLR None
2018-11-14 15:53 32 10 19 39 320° 14 22 30.45 30.46 10 CLR Peak wind: 32 mph (28 kts) from 310° at 13 min
2018-11-14 14:53 34 10 22 36 320° 15 23 30.42 30.43 10 CLR None
2018-11-14 13:53 33 11 20 39 320° 15 25 30.40 30.41 10 CLR None
2018-11-14 12:53 33 11 20 39 290° 14 26 30.38 30.39 10 FEW060 6-hr Min Temp (1pm): 32.0°F
6-hr Max Temp (1pm): 35.1°F
2018-11-14 11:53 34 13 22 41 320° 14 24 30.38 30.39 10 SCT048 None
2018-11-14 10:53 32 18 19 55 340° 15 24 30.40 30.40 10 BKN045 None

Support USWX by starting your Amazon purchase here.